METAR Data
IDs: Format: Raw Decoded Include TAF

Data at: 0648 UTC 23 Feb 2019

KGTU 230626Z AUTO 14004KT 1/2SM FG OVC002 11/11 A2983 RMK AO2
KGTU 230613Z AUTO 12004KT 3/4SM BR OVC002 11/11 A2984 RMK AO2
KGTU 230607Z AUTO 12005KT 1SM BR OVC004 11/11 A2985 RMK AO2
KGTU 230556Z AUTO 13004KT 1 1/2SM BR OVC004 11/11 A2986 RMK AO2 SLP111 T01110106 10122 20111 401280089 56014
KGTU 230551Z AUTO 14005KT 2SM BR OVC004 11/11 A2986 RMK AO2 401280089
KGTU 230456Z AUTO 11004KT 7SM OVC004 11/11 A2988 RMK AO2 SLP119 T01110106
KGTU 230427Z AUTO 10003KT 6SM BR BKN004 11/11 A2989 RMK AO2 CIG 003V007
KGTU 230356Z AUTO 07005KT 8SM BKN008 11/11 A2990 RMK AO2 SLP126 T01110106
KGTU 230256Z 08003KT 10SM OVC005 11/11 A2993 RMK AO2 SLP136 T01110106 53008
KGTU 230156Z 04003KT 8SM OVC005 12/11 A2993 RMK AO2 SLP136 T01170106
KGTU 230056Z 06005KT 10SM OVC005 12/11 A2989 RMK AO2 SLP124 T01170106
KGTU 230047Z 05005KT 9SM OVC005 12/11 A2989 RMK AO2
KGTU 222356Z 07006KT 10SM OVC007 12/11 A2990 RMK AO2 SLP127 T01220106 10128 20106 56007
KGTU 222256Z 06005KT 9SM OVC007 12/11 A2991 RMK AO2 SLP129 T01220106
KGTU 222156Z 05006KT 10SM OVC007 13/11 A2991 RMK AO2 SLP130 T01280111
KGTU 222141Z 36004KT 10SM OVC007 12/11 A2991 RMK AO2
KGTU 222056Z 02003KT 10SM OVC005 12/11 A2992 RMK AO2 SLP135 T01170106 56025
KGTU 221956Z 08004KT 10SM OVC005 12/11 A2994 RMK AO2 SLP141 T01170106
KGTU 221856Z 36004KT 10SM OVC005 11/10 A2996 RMK AO2 SLP150 T01110100
KGTU 221756Z 36006KT 10SM OVC005 11/09 A3000 RMK AO2 SLP161 60004 T01060094 10106 20089 58004
KGTU 221656Z 02004KT 10SM OVC005 10/09 A3001 RMK AO2 RAE04 CIG 003V008 SLP166 P0001 T01000094
KGTU 221645Z 02004KT 9SM OVC005 10/09 A3001 RMK AO2 RAE04 CIG 003V008 P0001
KGTU 221621Z 02004KT 2SM BR BKN003 OVC007 09/09 A3001 RMK AO2 SFC VIS 4 RAE04 P0000
KGTU 221609Z 02004KT 1 1/2SM BR BKN003 OVC007 09/09 A3001 RMK AO2 SFC VIS 4 RAE04 CIG 002V005 P0000
KGTU 221558Z 03004KT 1 1/2SM -RA BR OVC005 09/09 A3001 RMK AO2 SFC VIS 2 1/2 CIG 002V008 P0000
KGTU 221556Z 01004KT 1SM -RA BR OVC002 09/09 A3001 RMK AO2 SFC VIS 1 1/4 SLP167 P0002 T00940089
KGTU 221503Z 32004KT 1SM -RA BR OVC002 09/09 A3001 RMK AO2 SFC VIS 1 1/4 P0000
KGTU 221456Z 33005KT 1/4SM -RA BR VV002 09/09 A3001 RMK AO2 SFC VIS 3/4 RAB47 SLP165 P0001 60001 T00940089 53024
KGTU 221356Z 34004KT 1/4SM FG OVC002 09/09 A2998 RMK AO2 TWR VIS 1/4 SLP154 T00890089
KGTU 221311Z 00000KT 1/4SM FG BKN002 09/09 A2997 RMK AO2
KGTU 221256Z VRB03KT 3/4SM BR BKN002 09/09 A2996 RMK AO2 SLP146 T00890089
KGTU 221254Z 00000KT 3/4SM BR BKN002 09/09 A2996 RMK AO2
KGTU 221245Z AUTO 11005KT 1 1/2SM BR BKN002 09/09 A2995 RMK AO2 VIS 1V2 1/2
KGTU 221238Z AUTO VRB03KT 2SM BR BKN002 09/09 A2996 RMK AO2 VIS 1 1/4V3
KGTU 221156Z AUTO 06004KT 3SM BR OVC002 09/08 A2994 RMK AO2 SLP141 T00890083 10094 20089 55010
KGTU 221133Z AUTO 03005KT 4SM BR OVC002 09/08 A2994 RMK AO2
KGTU 221121Z AUTO 07007KT 2SM BR OVC002 09/08 A2993 RMK AO2
KGTU 221109Z AUTO 01004KT 1 1/2SM BR BKN002 09/08 A2995 RMK AO2
KGTU 221056Z AUTO 08008KT 1SM BR VV002 09/08 A2992 RMK AO2 SLP135 T00890083
KGTU 221039Z AUTO 07008KT 1SM BR VV002 09/08 A2994 RMK AO2
KGTU 221018Z AUTO 07006KT 1 3/4SM BR OVC002 09/08 A2995 RMK AO2
KGTU 220956Z AUTO 07005KT 5SM BR OVC002 09/08 A2997 RMK AO2 SLP151 T00890083
KGTU 220856Z AUTO 06006KT 6SM BR OVC002 09/08 A2996 RMK AO2 SLP149 T00890083 56016
KGTU 220656Z AUTO 07004KT 5SM BR OVC002 09/09 A2999 RMK AO2 SLP159 T00890089
KGTU 220556Z AUTO 05005KT 6SM BR OVC002 09/09 A3001 RMK AO2 SLP165 T00940089 10106 20094 401110044 51014
KGTU 220516Z AUTO 06005KT 4SM BR OVC002 09/09 A3001 RMK AO2
KGTU 220456Z AUTO 06006KT 4SM BR OVC004 09/09 A3000 RMK AO2 SLP163 T00940089
KGTU 220425Z AUTO 04006KT 3SM BR BKN004 OVC011 09/09 A3001 RMK AO2
KGTU 220416Z AUTO 05005KT 4SM BR SCT004 OVC011 10/09 A3001 RMK AO2
KGTU 220356Z 04005KT 10SM OVC011 10/08 A3000 RMK AO2 SLP161 T01000078
KGTU 220256Z 03006KT 10SM OVC013 10/07 A2997 RMK AO2 SLP150 T01000072 53017
KGTU 220206Z 03006KT 10SM OVC013 10/07 A2994 RMK AO2
KGTU 220156Z 05005KT 10SM OVC015 10/07 A2993 RMK AO2 SLP138 T01000072
KGTU 220056Z 05006KT 10SM OVC015 10/07 A2994 RMK AO2 SLP139 T01000072
KGTU 212356Z 06009KT 10SM OVC025 11/07 A2992 RMK AO2 SLP132 T01060067 10111 20106 56005
KGTU 212256Z 06009KT 10SM OVC021 11/07 A2992 RMK AO2 SLP133 T01110067
KGTU 212214Z 07008KT 10SM BKN025 OVC030 11/06 A2993 RMK AO2
KGTU 212156Z 08009KT 10SM OVC030 11/06 A2993 RMK AO2 SLP135 T01110061
KGTU 212056Z 06008KT 10SM OVC032 11/06 A2993 RMK AO2 SLP137 T01110061 58008
KGTU 211956Z 04006KT 10SM OVC038 11/07 A2995 RMK AO2 SLP146 T01060067
KGTU 211856Z 02006KT 10SM OVC038 11/06 A2998 RMK AO2 SLP153 T01060061